sensor_id;sensor_type;location;lat;lon;timestamp;temperature;humidity
66610;DHT22;53468;48.276;14.416;2024-02-23T00:00:48;6.60;92.70
66610;DHT22;53468;48.276;14.416;2024-02-23T00:05:51;6.70;92.60
66610;DHT22;53468;48.276;14.416;2024-02-23T00:10:53;6.80;92.60
66610;DHT22;53468;48.276;14.416;2024-02-23T00:15:57;6.80;92.60
66610;DHT22;53468;48.276;14.416;2024-02-23T00:26:09;6.70;92.40
66610;DHT22;53468;48.276;14.416;2024-02-23T00:31:13;6.70;92.40
66610;DHT22;53468;48.276;14.416;2024-02-23T00:36:15;6.70;92.50
66610;DHT22;53468;48.276;14.416;2024-02-23T00:41:17;6.80;92.40
66610;DHT22;53468;48.276;14.416;2024-02-23T00:46:21;6.80;92.40
66610;DHT22;53468;48.276;14.416;2024-02-23T00:51:23;6.80;92.70
66610;DHT22;53468;48.276;14.416;2024-02-23T00:56:25;6.80;93.00
66610;DHT22;53468;48.276;14.416;2024-02-23T01:01:29;6.80;92.90
66610;DHT22;53468;48.276;14.416;2024-02-23T01:06:32;6.80;92.80
66610;DHT22;53468;48.276;14.416;2024-02-23T01:11:35;6.80;92.80
66610;DHT22;53468;48.276;14.416;2024-02-23T01:16:38;6.80;92.90
66610;DHT22;53468;48.276;14.416;2024-02-23T01:21:41;6.80;93.10
66610;DHT22;53468;48.276;14.416;2024-02-23T01:26:43;6.80;93.00
66610;DHT22;53468;48.276;14.416;2024-02-23T01:31:46;6.80;93.10
66610;DHT22;53468;48.276;14.416;2024-02-23T01:36:49;6.90;93.20
66610;DHT22;53468;48.276;14.416;2024-02-23T01:41:51;6.90;93.10
66610;DHT22;53468;48.276;14.416;2024-02-23T01:46:57;7.00;93.40
66610;DHT22;53468;48.276;14.416;2024-02-23T01:52:00;7.10;93.50
66610;DHT22;53468;48.276;14.416;2024-02-23T01:57:03;7.10;93.60
66610;DHT22;53468;48.276;14.416;2024-02-23T02:02:07;7.20;93.60
66610;DHT22;53468;48.276;14.416;2024-02-23T02:07:09;7.20;94.20
66610;DHT22;53468;48.276;14.416;2024-02-23T02:12:12;7.20;94.70
66610;DHT22;53468;48.276;14.416;2024-02-23T02:17:16;7.30;94.60
66610;DHT22;53468;48.276;14.416;2024-02-23T02:22:18;7.30;94.80
66610;DHT22;53468;48.276;14.416;2024-02-23T02:27:20;7.30;95.00
66610;DHT22;53468;48.276;14.416;2024-02-23T02:32:24;7.50;95.10
66610;DHT22;53468;48.276;14.416;2024-02-23T02:37:26;7.50;95.20
66610;DHT22;53468;48.276;14.416;2024-02-23T02:42:28;7.50;95.30
66610;DHT22;53468;48.276;14.416;2024-02-23T02:47:32;7.50;95.30
66610;DHT22;53468;48.276;14.416;2024-02-23T02:52:34;7.50;95.30
66610;DHT22;53468;48.276;14.416;2024-02-23T02:57:36;7.50;95.30
66610;DHT22;53468;48.276;14.416;2024-02-23T03:02:41;7.50;95.30
66610;DHT22;53468;48.276;14.416;2024-02-23T03:07:43;7.50;95.50
66610;DHT22;53468;48.276;14.416;2024-02-23T03:12:45;7.50;95.70
66610;DHT22;53468;48.276;14.416;2024-02-23T03:17:49;7.50;95.90
66610;DHT22;53468;48.276;14.416;2024-02-23T03:22:51;7.50;95.80
66610;DHT22;53468;48.276;14.416;2024-02-23T03:27:53;7.50;95.90
66610;DHT22;53468;48.276;14.416;2024-02-23T03:32:57;7.40;95.80
66610;DHT22;53468;48.276;14.416;2024-02-23T03:38:00;7.50;95.80
66610;DHT22;53468;48.276;14.416;2024-02-23T03:43:03;7.50;95.60
66610;DHT22;53468;48.276;14.416;2024-02-23T03:48:08;7.50;95.60
66610;DHT22;53468;48.276;14.416;2024-02-23T03:53:10;7.50;95.70
66610;DHT22;53468;48.276;14.416;2024-02-23T03:58:12;7.50;95.60
66610;DHT22;53468;48.276;14.416;2024-02-23T04:03:16;7.40;95.60
66610;DHT22;53468;48.276;14.416;2024-02-23T04:08:19;7.50;95.60
66610;DHT22;53468;48.276;14.416;2024-02-23T04:13:21;7.50;95.50
66610;DHT22;53468;48.276;14.416;2024-02-23T04:18:25;7.50;95.40
66610;DHT22;53468;48.276;14.416;2024-02-23T04:23:27;7.50;95.30
66610;DHT22;53468;48.276;14.416;2024-02-23T04:28:29;7.50;95.40
66610;DHT22;53468;48.276;14.416;2024-02-23T04:33:35;7.50;95.30
66610;DHT22;53468;48.276;14.416;2024-02-23T04:38:38;7.50;95.10
66610;DHT22;53468;48.276;14.416;2024-02-23T04:43:40;7.40;95.20
66610;DHT22;53468;48.276;14.416;2024-02-23T04:48:44;7.30;95.20
66610;DHT22;53468;48.276;14.416;2024-02-23T04:53:46;7.30;95.20
66610;DHT22;53468;48.276;14.416;2024-02-23T04:58:48;7.20;95.20
66610;DHT22;53468;48.276;14.416;2024-02-23T05:03:51;7.40;95.30
66610;DHT22;53468;48.276;14.416;2024-02-23T05:08:54;7.30;95.40
66610;DHT22;53468;48.276;14.416;2024-02-23T05:13:56;7.40;94.60
66610;DHT22;53468;48.276;14.416;2024-02-23T05:19:00;7.50;94.20
66610;DHT22;53468;48.276;14.416;2024-02-23T05:24:04;7.50;93.50
66610;DHT22;53468;48.276;14.416;2024-02-23T05:29:06;7.50;93.20
66610;DHT22;53468;48.276;14.416;2024-02-23T05:34:10;7.50;92.70
66610;DHT22;53468;48.276;14.416;2024-02-23T05:39:13;7.60;93.20
66610;DHT22;53468;48.276;14.416;2024-02-23T05:44:16;7.60;92.60
66610;DHT22;53468;48.276;14.416;2024-02-23T05:49:20;7.60;92.50
66610;DHT22;53468;48.276;14.416;2024-02-23T05:54:23;7.60;92.50
66610;DHT22;53468;48.276;14.416;2024-02-23T05:59:25;7.60;91.90
66610;DHT22;53468;48.276;14.416;2024-02-23T06:04:29;7.60;92.30
66610;DHT22;53468;48.276;14.416;2024-02-23T06:09:31;7.60;90.20
66610;DHT22;53468;48.276;14.416;2024-02-23T06:14:33;7.30;91.60
66610;DHT22;53468;48.276;14.416;2024-02-23T06:19:37;7.00;90.90
66610;DHT22;53468;48.276;14.416;2024-02-23T06:24:39;6.90;92.00
66610;DHT22;53468;48.276;14.416;2024-02-23T06:29:42;6.80;90.80
66610;DHT22;53468;48.276;14.416;2024-02-23T06:34:45;6.70;91.30
66610;DHT22;53468;48.276;14.416;2024-02-23T06:39:47;6.70;92.00
66610;DHT22;53468;48.276;14.416;2024-02-23T06:44:55;6.70;92.30
66610;DHT22;53468;48.276;14.416;2024-02-23T06:49:58;6.60;92.40
66610;DHT22;53468;48.276;14.416;2024-02-23T06:55:01;6.70;92.50
66610;DHT22;53468;48.276;14.416;2024-02-23T07:00:04;6.70;92.30
66610;DHT22;53468;48.276;14.416;2024-02-23T07:05:09;6.90;92.30
66610;DHT22;53468;48.276;14.416;2024-02-23T07:15:14;6.80;92.20
66610;DHT22;53468;48.276;14.416;2024-02-23T07:20:18;6.80;92.00
66610;DHT22;53468;48.276;14.416;2024-02-23T07:25:20;6.80;91.00
66610;DHT22;53468;48.276;14.416;2024-02-23T07:30:22;6.80;91.40
66610;DHT22;53468;48.276;14.416;2024-02-23T07:35:25;6.90;91.20
66610;DHT22;53468;48.276;14.416;2024-02-23T07:40:28;6.90;91.50
66610;DHT22;53468;48.276;14.416;2024-02-23T07:45:32;6.90;91.90
66610;DHT22;53468;48.276;14.416;2024-02-23T07:50:37;6.90;91.80
66610;DHT22;53468;48.276;14.416;2024-02-23T07:55:39;7.00;91.40
66610;DHT22;53468;48.276;14.416;2024-02-23T08:00:41;7.10;91.70
66610;DHT22;53468;48.276;14.416;2024-02-23T08:05:45;7.20;91.70
66610;DHT22;53468;48.276;14.416;2024-02-23T08:10:47;7.20;92.00
66610;DHT22;53468;48.276;14.416;2024-02-23T08:15:49;7.20;90.80
66610;DHT22;53468;48.276;14.416;2024-02-23T08:20:53;7.20;90.50
66610;DHT22;53468;48.276;14.416;2024-02-23T08:25:55;7.20;90.40
66610;DHT22;53468;48.276;14.416;2024-02-23T08:30:59;7.30;87.30
66610;DHT22;53468;48.276;14.416;2024-02-23T08:36:02;7.20;86.00
66610;DHT22;53468;48.276;14.416;2024-02-23T08:41:06;7.30;86.70
66610;DHT22;53468;48.276;14.416;2024-02-23T08:46:08;7.40;87.40
66610;DHT22;53468;48.276;14.416;2024-02-23T08:51:12;7.40;87.10
66610;DHT22;53468;48.276;14.416;2024-02-23T08:56:14;7.60;88.10
66610;DHT22;53468;48.276;14.416;2024-02-23T09:01:16;7.70;84.90
66610;DHT22;53468;48.276;14.416;2024-02-23T09:06:20;7.80;86.60
66610;DHT22;53468;48.276;14.416;2024-02-23T09:11:22;8.00;86.40
66610;DHT22;53468;48.276;14.416;2024-02-23T09:16:24;8.20;84.80
66610;DHT22;53468;48.276;14.416;2024-02-23T09:21:28;8.50;86.20
66610;DHT22;53468;48.276;14.416;2024-02-23T09:26:30;8.60;83.50
66610;DHT22;53468;48.276;14.416;2024-02-23T09:31:32;8.80;82.30
66610;DHT22;53468;48.276;14.416;2024-02-23T09:36:36;8.80;84.40
66610;DHT22;53468;48.276;14.416;2024-02-23T09:41:39;8.80;82.30
66610;DHT22;53468;48.276;14.416;2024-02-23T09:46:43;8.60;82.20
66610;DHT22;53468;48.276;14.416;2024-02-23T09:51:47;8.60;83.30
66610;DHT22;53468;48.276;14.416;2024-02-23T09:56:50;8.60;82.10
66610;DHT22;53468;48.276;14.416;2024-02-23T10:01:53;8.70;82.10
66610;DHT22;53468;48.276;14.416;2024-02-23T10:06:56;8.80;81.80
66610;DHT22;53468;48.276;14.416;2024-02-23T10:11:58;8.90;82.20
66610;DHT22;53468;48.276;14.416;2024-02-23T10:17:01;8.80;80.30
66610;DHT22;53468;48.276;14.416;2024-02-23T10:22:04;8.90;82.60
66610;DHT22;53468;48.276;14.416;2024-02-23T10:27:06;8.90;80.40
66610;DHT22;53468;48.276;14.416;2024-02-23T10:32:10;8.80;82.20
66610;DHT22;53468;48.276;14.416;2024-02-23T10:37:18;8.90;82.30
66610;DHT22;53468;48.276;14.416;2024-02-23T10:42:22;9.00;81.90
66610;DHT22;53468;48.276;14.416;2024-02-23T10:47:25;9.00;82.40
66610;DHT22;53468;48.276;14.416;2024-02-23T10:52:29;9.00;82.70
66610;DHT22;53468;48.276;14.416;2024-02-23T10:57:32;8.90;81.40
66610;DHT22;53468;48.276;14.416;2024-02-23T11:02:38;8.90;82.80
66610;DHT22;53468;48.276;14.416;2024-02-23T11:07:46;8.80;82.50
66610;DHT22;53468;48.276;14.416;2024-02-23T11:12:57;8.80;83.10
66610;DHT22;53468;48.276;14.416;2024-02-23T11:18:00;8.70;83.60
66610;DHT22;53468;48.276;14.416;2024-02-23T11:23:13;8.70;84.30
66610;DHT22;53468;48.276;14.416;2024-02-23T11:28:22;8.70;83.50
66610;DHT22;53468;48.276;14.416;2024-02-23T11:33:27;8.60;83.40
66610;DHT22;53468;48.276;14.416;2024-02-23T11:38:32;8.60;84.40
66610;DHT22;53468;48.276;14.416;2024-02-23T11:43:34;8.50;83.20
66610;DHT22;53468;48.276;14.416;2024-02-23T11:48:36;8.40;85.20
66610;DHT22;53468;48.276;14.416;2024-02-23T11:53:40;8.50;85.40
66610;DHT22;53468;48.276;14.416;2024-02-23T11:58:42;8.50;84.90
66610;DHT22;53468;48.276;14.416;2024-02-23T12:03:45;8.50;85.10
66610;DHT22;53468;48.276;14.416;2024-02-23T12:08:48;8.50;86.60
66610;DHT22;53468;48.276;14.416;2024-02-23T12:13:50;8.50;88.90
66610;DHT22;53468;48.276;14.416;2024-02-23T12:18:53;8.50;87.70
66610;DHT22;53468;48.276;14.416;2024-02-23T12:23:57;8.50;87.80
66610;DHT22;53468;48.276;14.416;2024-02-23T12:29:00;8.50;88.70
66610;DHT22;53468;48.276;14.416;2024-02-23T12:34:03;8.40;86.70
66610;DHT22;53468;48.276;14.416;2024-02-23T12:39:07;8.30;88.30
66610;DHT22;53468;48.276;14.416;2024-02-23T12:44:09;8.30;89.20
66610;DHT22;53468;48.276;14.416;2024-02-23T12:49:11;8.20;91.00
66610;DHT22;53468;48.276;14.416;2024-02-23T12:54:15;8.10;90.20
66610;DHT22;53468;48.276;14.416;2024-02-23T12:59:17;8.00;90.00
66610;DHT22;53468;48.276;14.416;2024-02-23T13:04:19;7.80;90.50
66610;DHT22;53468;48.276;14.416;2024-02-23T13:09:22;7.80;91.00
66610;DHT22;53468;48.276;14.416;2024-02-23T13:14:24;7.80;90.60
66610;DHT22;53468;48.276;14.416;2024-02-23T13:19:26;7.70;91.40
66610;DHT22;53468;48.276;14.416;2024-02-23T13:24:30;7.50;90.50
66610;DHT22;53468;48.276;14.416;2024-02-23T13:29:32;7.10;90.70
66610;DHT22;53468;48.276;14.416;2024-02-23T13:34:34;7.10;91.90
66610;DHT22;53468;48.276;14.416;2024-02-23T13:39:37;7.10;91.60
66610;DHT22;53468;48.276;14.416;2024-02-23T13:44:39;7.20;91.90
66610;DHT22;53468;48.276;14.416;2024-02-23T13:49:41;7.20;91.10
66610;DHT22;53468;48.276;14.416;2024-02-23T13:54:45;7.20;91.10
66610;DHT22;53468;48.276;14.416;2024-02-23T13:59:47;7.20;91.70
66610;DHT22;53468;48.276;14.416;2024-02-23T14:04:49;7.20;91.80
66610;DHT22;53468;48.276;14.416;2024-02-23T14:09:53;7.20;92.10
66610;DHT22;53468;48.276;14.416;2024-02-23T14:14:55;7.10;91.20
66610;DHT22;53468;48.276;14.416;2024-02-23T14:19:57;7.00;91.70
66610;DHT22;53468;48.276;14.416;2024-02-23T14:25:00;6.90;91.70
66610;DHT22;53468;48.276;14.416;2024-02-23T14:30:03;6.90;91.90
66610;DHT22;53468;48.276;14.416;2024-02-23T14:35:05;6.90;93.00
66610;DHT22;53468;48.276;14.416;2024-02-23T14:40:10;6.70;92.90
66610;DHT22;53468;48.276;14.416;2024-02-23T14:45:14;6.70;92.80
66610;DHT22;53468;48.276;14.416;2024-02-23T14:50:17;6.70;93.50
66610;DHT22;53468;48.276;14.416;2024-02-23T14:55:20;6.50;93.70
66610;DHT22;53468;48.276;14.416;2024-02-23T15:00:22;6.50;94.00
66610;DHT22;53468;48.276;14.416;2024-02-23T15:05:24;6.40;93.90
66610;DHT22;53468;48.276;14.416;2024-02-23T15:10:28;6.40;93.60
66610;DHT22;53468;48.276;14.416;2024-02-23T15:15:30;6.30;93.90
66610;DHT22;53468;48.276;14.416;2024-02-23T15:25:44;6.30;93.70
66610;DHT22;53468;48.276;14.416;2024-02-23T15:30:46;6.20;92.90
66610;DHT22;53468;48.276;14.416;2024-02-23T15:35:48;6.20;93.10
66610;DHT22;53468;48.276;14.416;2024-02-23T15:40:51;6.20;93.30
66610;DHT22;53468;48.276;14.416;2024-02-23T15:45:53;6.10;93.20
66610;DHT22;53468;48.276;14.416;2024-02-23T15:50:55;6.00;93.50
66610;DHT22;53468;48.276;14.416;2024-02-23T15:55:59;5.80;93.70
66610;DHT22;53468;48.276;14.416;2024-02-23T16:01:01;5.70;94.30
66610;DHT22;53468;48.276;14.416;2024-02-23T16:06:04;5.70;93.70
66610;DHT22;53468;48.276;14.416;2024-02-23T16:11:08;5.70;93.00
66610;DHT22;53468;48.276;14.416;2024-02-23T16:16:11;5.60;92.80
66610;DHT22;53468;48.276;14.416;2024-02-23T16:26:26;5.60;92.90
66610;DHT22;53468;48.276;14.416;2024-02-23T16:31:28;5.60;93.30
66610;DHT22;53468;48.276;14.416;2024-02-23T16:36:30;5.60;93.10
66610;DHT22;53468;48.276;14.416;2024-02-23T16:41:34;5.50;92.90
66610;DHT22;53468;48.276;14.416;2024-02-23T16:46:37;5.50;92.30
66610;DHT22;53468;48.276;14.416;2024-02-23T16:56:43;5.40;93.20
66610;DHT22;53468;48.276;14.416;2024-02-23T17:01:45;5.30;93.50
66610;DHT22;53468;48.276;14.416;2024-02-23T17:06:47;5.30;93.20
66610;DHT22;53468;48.276;14.416;2024-02-23T17:11:51;5.10;92.60
66610;DHT22;53468;48.276;14.416;2024-02-23T17:16:53;5.00;93.00
66610;DHT22;53468;48.276;14.416;2024-02-23T17:21:55;4.80;92.80
66610;DHT22;53468;48.276;14.416;2024-02-23T17:26:58;4.90;93.60
66610;DHT22;53468;48.276;14.416;2024-02-23T17:37:11;4.70;94.00
66610;DHT22;53468;48.276;14.416;2024-02-23T17:42:14;4.70;93.70
66610;DHT22;53468;48.276;14.416;2024-02-23T17:47:17;4.60;94.00
66610;DHT22;53468;48.276;14.416;2024-02-23T17:52:19;4.50;93.70
66610;DHT22;53468;48.276;14.416;2024-02-23T17:57:22;4.50;94.20
66610;DHT22;53468;48.276;14.416;2024-02-23T18:02:24;4.40;94.60
66610;DHT22;53468;48.276;14.416;2024-02-23T18:07:26;4.40;94.50
66610;DHT22;53468;48.276;14.416;2024-02-23T18:12:31;4.40;94.10
66610;DHT22;53468;48.276;14.416;2024-02-23T18:17:33;4.40;94.10
66610;DHT22;53468;48.276;14.416;2024-02-23T18:22:35;4.40;94.40
66610;DHT22;53468;48.276;14.416;2024-02-23T18:27:39;4.10;94.30
66610;DHT22;53468;48.276;14.416;2024-02-23T18:32:41;4.20;94.40
66610;DHT22;53468;48.276;14.416;2024-02-23T18:37:43;4.10;94.60
66610;DHT22;53468;48.276;14.416;2024-02-23T18:42:47;4.00;94.70
66610;DHT22;53468;48.276;14.416;2024-02-23T18:47:49;3.90;94.50
66610;DHT22;53468;48.276;14.416;2024-02-23T18:52:51;4.00;94.60
66610;DHT22;53468;48.276;14.416;2024-02-23T18:57:54;3.90;94.60
66610;DHT22;53468;48.276;14.416;2024-02-23T19:02:56;3.90;94.50
66610;DHT22;53468;48.276;14.416;2024-02-23T19:07:59;3.80;94.50
66610;DHT22;53468;48.276;14.416;2024-02-23T19:13:02;3.80;94.50
66610;DHT22;53468;48.276;14.416;2024-02-23T19:18:05;3.70;94.80
66610;DHT22;53468;48.276;14.416;2024-02-23T19:23:07;3.60;94.70
66610;DHT22;53468;48.276;14.416;2024-02-23T19:28:10;3.50;94.50
66610;DHT22;53468;48.276;14.416;2024-02-23T19:33:12;3.40;94.50
66610;DHT22;53468;48.276;14.416;2024-02-23T19:38:14;3.40;94.60
66610;DHT22;53468;48.276;14.416;2024-02-23T19:43:18;3.30;94.70
66610;DHT22;53468;48.276;14.416;2024-02-23T19:48:20;3.20;94.80
66610;DHT22;53468;48.276;14.416;2024-02-23T19:53:22;3.20;94.70
66610;DHT22;53468;48.276;14.416;2024-02-23T19:58:26;3.10;94.60
66610;DHT22;53468;48.276;14.416;2024-02-23T20:03:28;3.00;94.40
66610;DHT22;53468;48.276;14.416;2024-02-23T20:08:30;3.00;94.40
66610;DHT22;53468;48.276;14.416;2024-02-23T20:13:33;2.80;94.50
66610;DHT22;53468;48.276;14.416;2024-02-23T20:18:37;2.80;94.40
66610;DHT22;53468;48.276;14.416;2024-02-23T20:23:45;2.80;94.30
66610;DHT22;53468;48.276;14.416;2024-02-23T20:28:48;2.60;94.50
66610;DHT22;53468;48.276;14.416;2024-02-23T20:33:50;2.60;94.80
66610;DHT22;53468;48.276;14.416;2024-02-23T20:38:53;2.70;94.60
66610;DHT22;53468;48.276;14.416;2024-02-23T20:43:56;2.60;94.20
66610;DHT22;53468;48.276;14.416;2024-02-23T20:49:00;2.50;94.20
66610;DHT22;53468;48.276;14.416;2024-02-23T20:54:03;2.40;94.30
66610;DHT22;53468;48.276;14.416;2024-02-23T20:59:08;2.30;94.60
66610;DHT22;53468;48.276;14.416;2024-02-23T21:04:10;2.30;94.80
66610;DHT22;53468;48.276;14.416;2024-02-23T21:09:12;2.20;95.00
66610;DHT22;53468;48.276;14.416;2024-02-23T21:14:18;2.10;95.20
66610;DHT22;53468;48.276;14.416;2024-02-23T21:19:20;2.10;95.40
66610;DHT22;53468;48.276;14.416;2024-02-23T21:24:22;2.00;95.30
66610;DHT22;53468;48.276;14.416;2024-02-23T21:29:25;1.90;95.40
66610;DHT22;53468;48.276;14.416;2024-02-23T21:34:27;1.80;95.70
66610;DHT22;53468;48.276;14.416;2024-02-23T21:39:29;1.80;95.60
66610;DHT22;53468;48.276;14.416;2024-02-23T21:44:33;1.80;95.60
66610;DHT22;53468;48.276;14.416;2024-02-23T21:49:35;1.70;95.80
66610;DHT22;53468;48.276;14.416;2024-02-23T21:54:38;1.80;95.80
66610;DHT22;53468;48.276;14.416;2024-02-23T21:59:45;1.80;95.80
66610;DHT22;53468;48.276;14.416;2024-02-23T22:04:47;1.70;95.80
66610;DHT22;53468;48.276;14.416;2024-02-23T22:09:49;1.70;96.20
66610;DHT22;53468;48.276;14.416;2024-02-23T22:14:57;1.80;96.10
66610;DHT22;53468;48.276;14.416;2024-02-23T22:20:00;1.90;95.90
66610;DHT22;53468;48.276;14.416;2024-02-23T22:25:02;2.00;95.60
66610;DHT22;53468;48.276;14.416;2024-02-23T22:30:06;2.20;95.50
66610;DHT22;53468;48.276;14.416;2024-02-23T22:35:11;2.20;95.30
66610;DHT22;53468;48.276;14.416;2024-02-23T22:40:13;2.30;95.10
66610;DHT22;53468;48.276;14.416;2024-02-23T22:45:17;2.30;95.10
66610;DHT22;53468;48.276;14.416;2024-02-23T22:50:19;2.40;95.00
66610;DHT22;53468;48.276;14.416;2024-02-23T22:55:22;2.40;94.90
66610;DHT22;53468;48.276;14.416;2024-02-23T23:00:25;2.50;94.80
66610;DHT22;53468;48.276;14.416;2024-02-23T23:05:27;2.50;94.60
66610;DHT22;53468;48.276;14.416;2024-02-23T23:10:29;2.60;94.90
66610;DHT22;53468;48.276;14.416;2024-02-23T23:15:33;2.60;94.80
66610;DHT22;53468;48.276;14.416;2024-02-23T23:20:35;2.60;94.70
66610;DHT22;53468;48.276;14.416;2024-02-23T23:25:37;2.60;94.60
66610;DHT22;53468;48.276;14.416;2024-02-23T23:30:40;2.70;94.60
66610;DHT22;53468;48.276;14.416;2024-02-23T23:35:42;2.60;94.70
66610;DHT22;53468;48.276;14.416;2024-02-23T23:40:44;2.70;94.70
66610;DHT22;53468;48.276;14.416;2024-02-23T23:45:48;2.70;94.80
66610;DHT22;53468;48.276;14.416;2024-02-23T23:50:50;2.60;94.80
66610;DHT22;53468;48.276;14.416;2024-02-23T23:55:52;2.80;94.80
